createdAt,value
2018-03-24T00:01:00.474Z,16.87
2018-03-24T00:03:26.605Z,17.53
2018-03-24T00:05:52.862Z,18.93
2018-03-24T00:08:18.885Z,19.47
2018-03-24T00:10:45.122Z,16.53
2018-03-24T00:13:11.172Z,19.33
2018-03-24T00:15:37.278Z,18.50
2018-03-24T00:18:03.310Z,18.10
2018-03-24T00:20:29.361Z,17.27
2018-03-24T00:22:55.429Z,19.23
2018-03-24T00:25:21.516Z,19.30
2018-03-24T00:27:47.643Z,19.33
2018-03-24T00:30:13.671Z,17.33
2018-03-24T00:32:39.879Z,19.07
2018-03-24T00:35:05.980Z,18.77
2018-03-24T00:37:32.044Z,18.63
2018-03-24T00:39:58.240Z,16.20
2018-03-24T00:42:24.305Z,19.53
2018-03-24T00:44:50.326Z,19.93
2018-03-24T00:50:10.039Z,18.70
2018-03-24T00:52:36.076Z,19.70
2018-03-24T00:55:02.168Z,18.70
2018-03-24T00:57:28.253Z,18.60
2018-03-24T00:59:54.354Z,17.60
2018-03-24T01:02:20.587Z,18.83
2018-03-24T01:04:46.692Z,19.27
2018-03-24T01:07:12.729Z,19.23
2018-03-24T01:09:38.959Z,19.13
2018-03-24T01:12:05.042Z,21.63
2018-03-24T01:14:31.097Z,19.47
2018-03-24T01:16:57.181Z,17.63
2018-03-24T01:19:23.215Z,20.27
2018-03-24T01:21:49.263Z,19.57
2018-03-24T01:24:15.376Z,18.77
2018-03-24T01:26:41.453Z,20.87
2018-03-24T01:29:07.513Z,16.80
2018-03-24T01:31:33.545Z,18.27
2018-03-24T01:33:59.610Z,18.00
2018-03-24T01:36:25.641Z,21.90
2018-03-24T01:38:51.718Z,19.47
2018-03-24T01:41:18.090Z,19.33
2018-03-24T01:43:44.114Z,17.73
2018-03-24T01:46:10.243Z,15.73
2018-03-24T01:48:36.302Z,19.43
2018-03-24T01:51:02.365Z,19.17
2018-03-24T01:53:40.851Z,17.83
2018-03-24T01:56:06.931Z,20.40
2018-03-24T01:58:33.105Z,20.43
2018-03-24T02:00:59.170Z,17.77
2018-03-24T02:03:25.239Z,17.03
2018-03-24T02:05:51.298Z,19.43
2018-03-24T02:08:17.615Z,18.50
2018-03-24T02:10:43.714Z,21.10
2018-03-24T02:13:09.786Z,19.67
2018-03-24T02:15:35.915Z,19.90
2018-03-24T02:18:16.867Z,21.57
2018-03-24T02:20:42.920Z,17.97
2018-03-24T02:23:08.964Z,19.10
2018-03-24T02:25:35.020Z,18.10
2018-03-24T02:28:01.055Z,20.33
2018-03-24T02:30:27.095Z,18.37
2018-03-24T02:32:53.167Z,18.80
2018-03-24T02:35:19.237Z,16.30
2018-03-24T02:37:45.251Z,19.13
2018-03-24T02:40:11.356Z,19.83
2018-03-24T02:42:37.431Z,20.57
2018-03-24T02:45:03.543Z,18.03
2018-03-24T02:47:29.571Z,19.47
2018-03-24T02:49:55.604Z,20.23
2018-03-24T02:52:21.684Z,21.03
2018-03-24T02:54:47.722Z,20.03
2018-03-24T02:57:14.048Z,16.63
2018-03-24T02:59:40.136Z,22.37
2018-03-24T03:02:06.211Z,18.70
2018-03-24T03:04:32.238Z,20.53
2018-03-24T03:06:58.294Z,20.77
2018-03-24T03:09:24.376Z,19.73
2018-03-24T03:11:50.440Z,20.63
2018-03-24T03:14:16.548Z,21.60
2018-03-24T03:16:42.813Z,21.03
2018-03-24T03:19:08.855Z,21.77
2018-03-24T03:21:47.267Z,23.57
2018-03-24T03:24:13.342Z,19.73
2018-03-24T03:26:39.454Z,21.43
2018-03-24T03:29:05.462Z,19.40
2018-03-24T03:31:31.515Z,20.30
2018-03-24T03:33:57.662Z,16.97
2018-03-24T03:36:23.729Z,21.57
2018-03-24T03:38:49.896Z,19.57
2018-03-24T03:41:16.174Z,19.43
2018-03-24T03:43:42.257Z,19.87
2018-03-24T03:46:08.593Z,21.50
2018-03-24T03:48:34.671Z,19.67
2018-03-24T03:51:00.749Z,21.10
2018-03-24T03:53:26.842Z,22.10
2018-03-24T03:55:52.900Z,21.77
2018-03-24T03:58:18.963Z,18.67
2018-03-24T04:00:45.024Z,20.80
2018-03-24T04:03:11.095Z,22.23
2018-03-24T04:05:37.152Z,21.10
2018-03-24T04:08:03.206Z,19.40
2018-03-24T04:10:29.328Z,21.30
2018-03-24T04:12:55.369Z,22.67
2018-03-24T04:15:21.492Z,21.40
2018-03-24T04:17:47.528Z,22.10
2018-03-24T04:20:13.626Z,21.73
2018-03-24T04:22:39.693Z,18.13
2018-03-24T04:25:05.740Z,21.07
2018-03-24T04:27:32.079Z,20.33
2018-03-24T04:29:58.152Z,21.43
2018-03-24T04:32:24.209Z,20.53
2018-03-24T04:34:50.277Z,21.47
2018-03-24T04:37:16.334Z,20.93
2018-03-24T04:39:42.383Z,22.30
2018-03-24T04:42:08.444Z,19.47
2018-03-24T04:44:34.855Z,19.80
2018-03-24T04:47:00.880Z,19.97
2018-03-24T04:49:26.917Z,20.93
2018-03-24T04:51:53.222Z,20.23
2018-03-24T04:54:19.289Z,21.97
2018-03-24T04:56:45.388Z,21.43
2018-03-24T04:59:11.455Z,20.57
2018-03-24T05:01:37.517Z,21.73
2018-03-24T05:04:03.572Z,21.90
2018-03-24T05:06:29.603Z,21.57
2018-03-24T05:08:55.652Z,20.70
2018-03-24T05:11:21.744Z,21.80
2018-03-24T05:13:47.773Z,20.40
2018-03-24T05:16:14.027Z,16.87
2018-03-24T05:18:40.098Z,18.93
2018-03-24T05:21:06.201Z,21.17
2018-03-24T05:23:32.237Z,21.50
2018-03-24T05:25:58.252Z,21.50
2018-03-24T05:28:24.298Z,22.43
2018-03-24T05:30:50.353Z,21.03
2018-03-24T05:33:16.421Z,21.37
2018-03-24T05:35:42.491Z,18.03
2018-03-24T05:38:08.614Z,21.70
2018-03-24T05:40:34.683Z,20.53
2018-03-24T05:43:00.757Z,18.90
2018-03-24T05:45:26.812Z,20.03
2018-03-24T05:47:52.837Z,22.80
2018-03-24T05:50:19.021Z,22.23
2018-03-24T05:52:45.123Z,22.37
2018-03-24T05:55:11.143Z,18.67
2018-03-24T05:57:37.434Z,21.30
2018-03-24T06:00:03.502Z,16.23
2018-03-24T06:02:29.558Z,19.03
2018-03-24T06:04:55.598Z,19.97
2018-03-24T06:07:21.859Z,20.33
2018-03-24T06:09:47.942Z,22.63
2018-03-24T06:12:14.037Z,20.07
2018-03-24T06:14:40.069Z,19.23
2018-03-24T06:17:06.160Z,20.47
2018-03-24T06:19:32.262Z,21.47
2018-03-24T06:21:58.274Z,21.67
2018-03-24T06:24:24.425Z,20.73
2018-03-24T06:26:50.464Z,24.10
2018-03-24T06:29:16.529Z,22.03
2018-03-24T06:31:47.697Z,21.23
2018-03-24T06:34:13.901Z,22.33
2018-03-24T06:39:41.587Z,23.43
2018-03-24T06:42:07.659Z,22.43
2018-03-24T06:44:33.689Z,19.60
2018-03-24T06:46:59.759Z,22.80
2018-03-24T06:49:25.817Z,21.77
2018-03-24T06:51:51.881Z,22.03
2018-03-24T06:54:17.951Z,19.97
2018-03-24T06:56:44.035Z,23.23
2018-03-24T06:59:10.078Z,22.93
2018-03-24T07:01:36.316Z,22.90
2018-03-24T07:04:02.577Z,23.50
2018-03-24T07:06:28.624Z,20.23
2018-03-24T07:08:54.725Z,25.93
2018-03-24T07:11:20.760Z,23.03
2018-03-24T07:13:47.158Z,21.73
2018-03-24T07:16:13.238Z,25.47
2018-03-24T07:18:39.511Z,27.20
2018-03-24T07:21:05.586Z,21.53
2018-03-24T07:23:31.760Z,23.43
2018-03-24T07:25:57.809Z,23.43
2018-03-24T07:28:23.873Z,23.73
2018-03-24T07:30:49.893Z,23.83
2018-03-24T07:33:15.924Z,23.40
2018-03-24T07:35:41.972Z,24.47
2018-03-24T07:38:08.014Z,24.97
2018-03-24T07:40:34.230Z,23.60
2018-03-24T07:43:00.343Z,23.97
2018-03-24T07:45:26.549Z,20.60
2018-03-24T07:47:52.633Z,21.90
2018-03-24T07:50:18.671Z,22.53
2018-03-24T07:52:44.867Z,23.30
2018-03-24T07:55:10.927Z,19.60
2018-03-24T07:57:37.204Z,23.63
2018-03-24T08:00:03.275Z,23.40
2018-03-24T08:02:29.306Z,24.97
2018-03-24T08:04:55.357Z,25.50
2018-03-24T08:07:21.585Z,20.17
2018-03-24T08:09:47.754Z,26.77
2018-03-24T08:12:13.782Z,24.77
2018-03-24T08:14:39.869Z,24.90
2018-03-24T08:17:05.951Z,21.23
2018-03-24T08:19:32.059Z,23.80
2018-03-24T08:21:58.113Z,25.73
2018-03-24T08:24:24.237Z,27.70
2018-03-24T08:26:50.477Z,24.27
2018-03-24T08:29:16.516Z,24.93
2018-03-24T08:31:42.627Z,24.30
2018-03-24T08:34:08.651Z,25.47
2018-03-24T08:36:34.659Z,27.97
2018-03-24T08:39:00.765Z,25.40
2018-03-24T08:41:26.808Z,26.10
2018-03-24T08:43:52.920Z,24.23
2018-03-24T08:46:19.018Z,25.17
2018-03-24T08:48:45.087Z,24.03
2018-03-24T08:51:11.135Z,24.43
2018-03-24T08:53:37.232Z,26.93
2018-03-24T08:56:03.299Z,25.63
2018-03-24T08:58:29.325Z,26.17
2018-03-24T09:00:55.474Z,26.90
2018-03-24T09:03:21.736Z,22.13
2018-03-24T09:05:48.075Z,27.33
2018-03-24T09:08:14.126Z,25.83
2018-03-24T09:10:40.203Z,24.20
2018-03-24T09:13:06.342Z,21.33
2018-03-24T09:15:32.518Z,25.17
2018-03-24T09:17:58.553Z,24.03
2018-03-24T09:20:24.572Z,25.10
2018-03-24T09:22:50.663Z,28.30
2018-03-24T09:25:16.726Z,26.50
2018-03-24T09:27:42.953Z,29.33
2018-03-24T09:30:08.968Z,26.03
2018-03-24T09:32:35.007Z,24.87
2018-03-24T09:35:01.095Z,25.40
2018-03-24T09:37:27.208Z,27.70
2018-03-24T09:39:53.243Z,23.67
2018-03-24T09:42:19.317Z,24.90
2018-03-24T09:44:45.430Z,25.77
2018-03-24T09:47:11.472Z,26.10
2018-03-24T09:49:37.742Z,26.17
2018-03-24T09:52:03.788Z,24.13
2018-03-24T09:54:29.851Z,24.23
2018-03-24T09:56:55.896Z,19.60
2018-03-24T09:59:21.995Z,30.07
2018-03-24T10:01:48.017Z,24.17
2018-03-24T10:04:14.082Z,27.80
2018-03-24T10:06:40.233Z,25.00
2018-03-24T10:09:06.441Z,25.00
2018-03-24T10:11:32.571Z,29.53
2018-03-24T10:13:58.640Z,23.77
2018-03-24T10:16:24.751Z,25.77
2018-03-24T10:18:50.936Z,21.50
2018-03-24T10:24:26.458Z,25.17
2018-03-24T10:26:52.725Z,21.83
2018-03-24T10:29:18.968Z,26.37
2018-03-24T10:31:46.285Z,25.57
2018-03-24T10:34:12.840Z,24.83
2018-03-24T10:36:39.162Z,22.43
2018-03-24T10:39:05.218Z,26.70
2018-03-24T10:41:31.366Z,26.10
2018-03-24T10:43:57.596Z,23.50
2018-03-24T10:46:23.871Z,23.73
2018-03-24T10:48:49.941Z,20.80
2018-03-24T10:51:15.991Z,20.83
2018-03-24T10:53:42.091Z,22.07
2018-03-24T10:56:08.141Z,20.83
2018-03-24T10:58:34.202Z,22.37
2018-03-24T11:01:03.428Z,17.20
2018-03-24T11:03:29.522Z,20.77
2018-03-24T11:05:55.778Z,20.07
2018-03-24T11:08:21.814Z,22.63
2018-03-24T11:10:47.948Z,18.20
2018-03-24T11:13:14.019Z,17.40
2018-03-24T11:15:40.128Z,14.43
2018-03-24T11:18:06.209Z,12.97
2018-03-24T11:20:32.290Z,16.37
2018-03-24T11:22:58.455Z,12.87
2018-03-24T11:25:24.479Z,11.27
2018-03-24T11:27:50.539Z,11.40
2018-03-24T11:30:16.597Z,11.10
2018-03-24T11:32:42.785Z,10.17
2018-03-24T11:35:08.875Z,9.70
2018-03-24T11:37:35.029Z,11.17
2018-03-24T11:40:01.489Z,9.60
2018-03-24T11:42:27.562Z,11.07
2018-03-24T11:44:53.635Z,11.13
2018-03-24T11:47:19.831Z,9.83
2018-03-24T11:49:45.882Z,9.13
2018-03-24T11:52:12.172Z,9.07
2018-03-24T11:54:43.888Z,9.97
2018-03-24T11:57:09.941Z,10.20
2018-03-24T11:59:36.041Z,11.50
2018-03-24T12:02:02.089Z,11.80
2018-03-24T12:04:28.152Z,11.50
2018-03-24T12:06:54.260Z,11.70
2018-03-24T12:09:20.325Z,10.40
2018-03-24T12:11:46.467Z,11.50
2018-03-24T12:14:12.539Z,10.57
2018-03-24T12:16:38.637Z,10.53
2018-03-24T12:19:04.767Z,10.73
2018-03-24T12:21:30.819Z,9.67
2018-03-24T12:23:56.980Z,11.07
2018-03-24T12:26:23.018Z,10.53
2018-03-24T12:28:49.085Z,9.97
2018-03-24T12:31:15.203Z,9.03
2018-03-24T12:33:41.313Z,9.53
2018-03-24T12:36:07.342Z,10.27
2018-03-24T12:38:33.374Z,9.97
2018-03-24T12:40:59.580Z,10.20
2018-03-24T12:43:25.644Z,10.07
2018-03-24T12:45:51.682Z,9.63
2018-03-24T12:48:17.868Z,11.00
2018-03-24T12:50:43.893Z,10.10
2018-03-24T12:53:10.071Z,10.60
2018-03-24T12:55:36.105Z,10.20
2018-03-24T12:58:02.175Z,9.50
2018-03-24T13:00:28.270Z,10.00
2018-03-24T13:02:54.483Z,9.97
2018-03-24T13:05:20.766Z,10.73
2018-03-24T13:07:46.774Z,9.73
2018-03-24T13:10:13.267Z,9.50
2018-03-24T13:12:39.317Z,10.27
2018-03-24T13:15:05.376Z,9.93
2018-03-24T13:17:31.425Z,11.00
2018-03-24T13:19:57.464Z,11.97
2018-03-24T13:22:23.507Z,11.47
2018-03-24T13:24:49.570Z,10.20
2018-03-24T13:27:15.600Z,10.20
2018-03-24T13:29:41.654Z,10.50
2018-03-24T13:32:08.101Z,8.37
2018-03-24T13:34:34.177Z,11.50
2018-03-24T13:37:00.228Z,10.17
2018-03-24T13:39:26.298Z,10.40
2018-03-24T13:41:52.354Z,9.40
2018-03-24T13:44:18.397Z,10.63
2018-03-24T13:46:44.438Z,9.43
2018-03-24T13:49:10.558Z,9.90
2018-03-24T13:51:36.602Z,11.23
2018-03-24T13:54:02.677Z,10.17
2018-03-24T13:56:28.759Z,9.83
2018-03-24T13:58:54.782Z,10.80
2018-03-24T14:01:20.891Z,10.33
2018-03-24T14:03:46.975Z,9.33
2018-03-24T14:06:12.994Z,10.27
2018-03-24T14:08:39.066Z,11.57
2018-03-24T14:11:05.105Z,9.90
2018-03-24T14:13:31.277Z,10.73
2018-03-24T14:15:57.328Z,10.37
2018-03-24T14:18:23.391Z,9.93
2018-03-24T14:20:49.443Z,8.93
2018-03-24T14:23:15.548Z,11.07
2018-03-24T14:25:41.640Z,10.10
2018-03-24T14:28:07.683Z,11.93
2018-03-24T14:30:33.765Z,10.50
2018-03-24T14:32:59.854Z,9.93
2018-03-24T14:35:25.901Z,9.97
2018-03-24T14:37:52.103Z,9.63
2018-03-24T14:40:18.156Z,10.03
2018-03-24T14:42:44.563Z,10.77
2018-03-24T14:45:10.851Z,9.57
2018-03-24T14:47:36.979Z,9.50
2018-03-24T14:50:03.062Z,10.20
2018-03-24T14:52:29.323Z,10.07
2018-03-24T14:54:55.372Z,10.30
2018-03-24T14:57:21.528Z,9.13
2018-03-24T14:59:47.920Z,8.40
2018-03-24T15:02:13.984Z,9.93
2018-03-24T15:04:40.036Z,9.60
2018-03-24T15:07:06.112Z,9.97
2018-03-24T15:09:32.288Z,10.57
2018-03-24T15:11:58.377Z,8.50
2018-03-24T15:14:24.410Z,9.83
2018-03-24T15:16:51.449Z,9.80
2018-03-24T15:19:17.540Z,9.87
2018-03-24T15:21:43.622Z,10.20
2018-03-24T15:24:09.706Z,10.53
2018-03-24T15:26:35.819Z,9.63
2018-03-24T15:29:14.340Z,10.87
2018-03-24T15:31:52.713Z,8.20
2018-03-24T15:34:31.227Z,10.20
2018-03-24T15:36:57.254Z,11.13
2018-03-24T15:39:23.425Z,10.17
2018-03-24T15:41:49.500Z,10.37
2018-03-24T15:44:15.623Z,8.73
2018-03-24T15:46:41.690Z,9.67
2018-03-24T15:49:07.759Z,10.40
2018-03-24T15:51:33.781Z,9.80
2018-03-24T15:53:59.846Z,10.33
2018-03-24T15:56:26.220Z,9.33
2018-03-24T15:58:52.258Z,10.23
2018-03-24T16:01:18.381Z,8.87
2018-03-24T16:03:44.423Z,10.03
2018-03-24T16:06:10.664Z,10.53
2018-03-24T16:08:36.732Z,9.27
2018-03-24T16:11:02.831Z,10.23
2018-03-24T16:13:28.906Z,8.57
2018-03-24T16:15:55.083Z,13.47
2018-03-24T16:18:21.177Z,10.10
2018-03-24T16:20:47.270Z,9.27
2018-03-24T16:23:13.556Z,8.97
2018-03-24T16:25:39.618Z,9.57
2018-03-24T16:28:05.717Z,10.73
2018-03-24T16:30:31.773Z,9.93
2018-03-24T16:33:12.754Z,9.97
2018-03-24T16:35:38.798Z,8.57
2018-03-24T16:38:04.874Z,9.70
2018-03-24T16:40:30.979Z,9.07
2018-03-24T16:42:57.062Z,9.90
2018-03-24T16:45:23.253Z,9.00
2018-03-24T16:47:49.234Z,7.37
2018-03-24T16:50:15.260Z,7.87
2018-03-24T16:52:41.339Z,9.47
2018-03-24T16:55:07.525Z,8.27
2018-03-24T16:57:33.831Z,9.33
2018-03-24T16:59:59.877Z,8.63
2018-03-24T17:02:25.967Z,7.33
2018-03-24T17:04:52.269Z,8.73
2018-03-24T17:07:18.310Z,10.57
2018-03-24T17:09:44.492Z,8.73
2018-03-24T17:12:10.678Z,10.40
2018-03-24T17:14:36.749Z,9.37
2018-03-24T17:17:02.801Z,9.43
2018-03-24T17:19:29.062Z,10.13
2018-03-24T17:21:55.132Z,10.27
2018-03-24T17:24:21.776Z,8.37
2018-03-24T17:26:47.861Z,9.93
2018-03-24T17:29:13.917Z,9.90
2018-03-24T17:31:40.070Z,7.80
2018-03-24T17:34:06.453Z,9.13
2018-03-24T17:36:32.512Z,7.83
2018-03-24T17:38:58.573Z,8.80
2018-03-24T17:41:24.669Z,8.93
2018-03-24T17:43:50.931Z,8.30
2018-03-24T17:46:16.998Z,9.13
2018-03-24T17:48:43.210Z,9.30
2018-03-24T17:51:09.263Z,8.13
2018-03-24T17:53:35.333Z,8.73
2018-03-24T17:56:01.720Z,8.73
2018-03-24T17:58:27.778Z,8.13
2018-03-24T18:00:54.313Z,7.63
2018-03-24T18:03:20.413Z,7.97
2018-03-24T18:05:46.903Z,8.53
2018-03-24T18:08:14.435Z,9.27
2018-03-24T18:10:40.513Z,9.30
2018-03-24T18:13:06.662Z,9.23
2018-03-24T18:15:32.711Z,9.07
2018-03-24T18:17:59.002Z,10.33
2018-03-24T18:20:25.046Z,9.00
2018-03-24T18:22:51.098Z,8.37
2018-03-24T18:25:17.173Z,10.30
2018-03-24T18:27:43.245Z,11.60
2018-03-24T18:30:09.339Z,14.27
2018-03-24T18:32:35.349Z,11.27
2018-03-24T18:35:01.458Z,9.90
2018-03-24T18:37:27.511Z,10.20
2018-03-24T18:39:53.647Z,10.27
2018-03-24T18:42:19.805Z,9.60
2018-03-24T18:44:45.857Z,9.60
2018-03-24T18:47:11.946Z,8.80
2018-03-24T18:49:38.002Z,8.87
2018-03-24T18:52:04.338Z,7.67
2018-03-24T18:54:30.512Z,8.93
2018-03-24T18:56:56.577Z,10.00
2018-03-24T18:59:22.773Z,10.20
2018-03-24T19:01:48.824Z,10.30
2018-03-24T19:04:14.919Z,10.20
2018-03-24T19:06:41.027Z,11.17
2018-03-24T19:09:07.139Z,9.97
2018-03-24T19:11:33.279Z,10.33
2018-03-24T19:13:59.335Z,9.80
2018-03-24T19:16:25.518Z,8.97
2018-03-24T19:18:51.686Z,9.20
2018-03-24T19:21:17.751Z,10.30
2018-03-24T19:23:44.951Z,10.07
2018-03-24T19:26:11.287Z,9.63
2018-03-24T19:28:38.234Z,10.50
2018-03-24T19:31:04.333Z,8.90
2018-03-24T19:33:31.207Z,10.23
2018-03-24T19:35:57.308Z,9.87
2018-03-24T19:38:23.454Z,11.83
2018-03-24T19:40:49.577Z,11.00
2018-03-24T19:43:15.854Z,10.27
2018-03-24T19:45:41.914Z,11.57
2018-03-24T19:48:07.993Z,10.10
2018-03-24T19:50:34.095Z,11.20
2018-03-24T19:53:00.200Z,11.77
2018-03-24T19:55:26.546Z,11.97
2018-03-24T19:57:52.749Z,9.23
2018-03-24T20:00:18.920Z,10.97
2018-03-24T20:02:45.958Z,11.30
2018-03-24T20:05:12.124Z,11.07
2018-03-24T20:07:38.290Z,11.83
2018-03-24T20:10:04.429Z,10.97
2018-03-24T20:12:30.483Z,11.00
2018-03-24T20:14:56.609Z,10.70
2018-03-24T20:17:22.643Z,12.93
2018-03-24T20:19:48.703Z,11.30
2018-03-24T20:22:14.801Z,12.00
2018-03-24T20:24:55.775Z,11.77
2018-03-24T20:27:21.943Z,12.90
2018-03-24T20:29:47.997Z,13.63
2018-03-24T20:32:14.060Z,11.60
2018-03-24T20:34:40.171Z,13.83
2018-03-24T20:37:06.199Z,13.73
2018-03-24T20:39:32.645Z,13.13
2018-03-24T20:41:58.752Z,10.77
2018-03-24T20:44:24.783Z,13.83
2018-03-24T20:46:50.953Z,12.50
2018-03-24T20:49:17.029Z,12.17
2018-03-24T20:51:43.157Z,12.37
2018-03-24T20:54:09.328Z,11.83
2018-03-24T20:56:35.388Z,13.47
2018-03-24T20:59:01.430Z,10.10
2018-03-24T21:01:27.546Z,12.07
2018-03-24T21:03:53.550Z,12.90
2018-03-24T21:06:19.650Z,10.87
2018-03-24T21:08:45.726Z,12.90
2018-03-24T21:11:12.072Z,13.33
2018-03-24T21:13:38.299Z,12.37
2018-03-24T21:16:04.483Z,12.83
2018-03-24T21:18:30.622Z,13.17
2018-03-24T21:20:56.847Z,13.47
2018-03-24T21:23:22.945Z,13.43
2018-03-24T21:25:49.266Z,13.63
2018-03-24T21:28:15.356Z,13.93
2018-03-24T21:30:41.429Z,22.67
2018-03-24T21:33:07.553Z,18.80
2018-03-24T21:42:18.124Z,15.17
2018-03-24T21:44:44.211Z,15.33
2018-03-24T21:47:10.272Z,15.60
2018-03-24T21:49:36.567Z,15.13
2018-03-24T21:52:02.736Z,15.00
2018-03-24T21:54:29.071Z,15.03
2018-03-24T21:56:55.178Z,14.87
2018-03-24T21:59:21.253Z,15.77
2018-03-24T22:01:47.414Z,15.47
2018-03-24T22:04:13.744Z,15.60
2018-03-24T22:06:39.939Z,15.40
2018-03-24T22:09:06.050Z,15.77
2018-03-24T22:11:32.387Z,14.67
2018-03-24T22:13:58.566Z,15.33
2018-03-24T22:16:24.679Z,15.83
2018-03-24T22:18:50.768Z,15.23
2018-03-24T22:21:16.872Z,14.97
2018-03-24T22:23:42.958Z,15.47
2018-03-24T22:26:09.109Z,15.00
2018-03-24T22:28:35.179Z,14.80
2018-03-24T22:31:01.249Z,14.73
2018-03-24T22:33:27.282Z,15.20
2018-03-24T22:35:53.350Z,16.10
2018-03-24T22:38:19.415Z,16.03
2018-03-24T22:40:45.463Z,14.97
2018-03-24T22:43:11.568Z,14.27
2018-03-24T22:45:37.851Z,13.23
2018-03-24T22:48:03.905Z,15.00
2018-03-24T22:50:30.005Z,15.37
2018-03-24T22:52:56.038Z,14.87
2018-03-24T22:55:22.133Z,14.73
2018-03-24T22:57:48.214Z,14.37
2018-03-24T23:00:14.284Z,15.93
2018-03-24T23:02:40.380Z,16.27
2018-03-24T23:05:06.611Z,16.10
2018-03-24T23:07:32.652Z,16.00
2018-03-24T23:09:58.907Z,17.23
2018-03-24T23:12:25.082Z,16.60
2018-03-24T23:14:51.141Z,15.10
2018-03-24T23:17:17.211Z,15.23
2018-03-24T23:19:43.379Z,14.73
2018-03-24T23:22:09.462Z,17.13
2018-03-24T23:24:35.573Z,16.70
2018-03-24T23:27:01.658Z,16.07
2018-03-24T23:29:27.699Z,15.20
2018-03-24T23:31:53.743Z,16.27
2018-03-24T23:34:19.847Z,18.23
2018-03-24T23:36:45.915Z,15.27
2018-03-24T23:39:12.043Z,15.97
2018-03-24T23:41:38.061Z,16.90
2018-03-24T23:44:04.235Z,14.57
2018-03-24T23:46:30.295Z,14.43
2018-03-24T23:48:57.462Z,16.83
2018-03-24T23:51:23.509Z,16.17
2018-03-24T23:53:49.575Z,16.13
2018-03-24T23:56:15.619Z,17.30
2018-03-24T23:58:41.655Z,17.03
